Flight Track Log - Related Links

Times and Time Zones

All times are in EDT time to prevent confusion due to time zone crossing. See the FLG3861 flight status page for this flight to view local times or setup timezone preferences in your user account.

Time Position Orientation Groundspeed Altitude Reporting Facility
EDT Latitude Longitude Course Direction KTS MPH feet Rate Location/Type
Sun 09:50:49 PM 42.2075 -83.3503 181° South 152 175 1,200  Level Cleveland Center
Sun 09:51:56 PM 42.1550 -83.3514 181° South 192 221 4,000 2,268 Climbing Cleveland Center
Sun 09:52:11 PM 42.1453 -83.3458 157° South 206 237 4,300 2,164 Climbing Cleveland Center
Sun 09:52:57 PM 42.1356 -83.2756 101° East 287 330 6,200 2,226 Climbing Cleveland Center
Sun 09:53:13 PM 42.1383 -83.2631 73° East 251 289 6,600 3,039 Climbing Cleveland Center
Sun 09:54:14 PM 42.1658 -83.1564 71° East 284 327 10,100 2,439 Climbing Cleveland Center
Sun 09:55:16 PM 42.1994 -83.0431 68° East 341 392 11,600 2,000 Climbing Cleveland Center
Sun 09:56:17 PM 42.2356 -82.9194 68° East 356 410 14,200 2,115 Climbing Cleveland Center
Sun 09:57:18 PM 42.2731 -82.7897 69° East 370 426 15,900 1,805 Climbing Cleveland Center
Sun 09:58:20 PM 42.3217 -82.6231 68° East 399 459 17,900 1,805 Climbing Cleveland Center
Sun 09:59:21 PM 42.3333 -82.4736 84° East 409 471 19,600 1,659 Climbing Cleveland Center
Sun 10:00:23 PM 42.3292 -82.3197 92° East 407 468 21,300 1,415 Climbing Cleveland Center
Sun 10:01:24 PM 42.3253 -82.1647 92° East 411 473 22,500 1,033 Climbing Cleveland Center
Sun 10:02:25 PM 42.3189 -81.9964 93° East 425 489 23,400 780 Climbing Cleveland Center
Sun 10:03:27 PM 42.3131 -81.8283 93° East 438 504 24,100 -195 Climbing Cleveland Center
Sun 10:04:28 PM 42.3075 -81.6706 93° East 422 486 23,000 -541 Descending Cleveland Center
Sun 10:05:29 PM 42.3028 -81.5094 92° East 420 483 23,000  Level Cleveland Center
Sun 10:06:31 PM 42.2950 -81.3372 93° East 447 514 23,000  Level Cleveland Center
Sun 10:07:32 PM 42.2889 -81.1628 93° East 457 526 23,000  Level Cleveland Center
Sun 10:08:33 PM 42.2814 -80.9861 93° East 462 532 23,000  Level Cleveland Center
Sun 10:09:35 PM 42.2739 -80.8075 93° East 466 536 23,000  Level Cleveland Center
Sun 10:10:36 PM 42.2656 -80.6300 94° East 468 539 23,000  Level Cleveland Center
Sun 10:11:37 PM 42.2575 -80.4511 93° East 468 539 23,000  Level Cleveland Center
Sun 10:12:39 PM 42.2500 -80.2722 93° East 473 544 23,000  Level Cleveland Center
Sun 10:13:40 PM 42.2414 -80.0942 94° East 474 545 23,000  Level Cleveland Center
Sun 10:14:41 PM 42.2314 -79.9211 94° East 470 541 23,000  Level Cleveland Center
Sun 10:15:42 PM 42.2208 -79.7081 94° East 473 544 23,000  Level Cleveland Center
Sun 10:16:43 PM 42.2111 -79.5314 94° East 476 548 23,000  Level Cleveland Center
Sun 10:17:45 PM 42.2011 -79.3536 94° East 477 549 23,000  Level Cleveland Center
Sun 10:18:46 PM 42.1908 -79.1775 94° East 476 548 23,000  Level Cleveland Center
Sun 10:19:47 PM 42.1900 -78.9994 90° East 477 549 23,000  Level Cleveland Center
Sun 10:20:48 PM 42.1950 -78.8011 88° East 477 549 23,000  Level Cleveland Center
Sun 10:21:49 PM 42.1972 -78.6222 89° East 478 550 23,000  Level Cleveland Center
Sun 10:22:50 PM 42.2006 -78.4453 88° East 477 549 23,000  Level Cleveland Center
Sun 10:23:52 PM 42.2025 -78.2672 89° East 477 549 23,000 -98 Level Cleveland Center
Sun 10:24:53 PM 42.2050 -78.0894 89° East 477 549 22,800 -885 Descending Cleveland Center
Sun 10:25:54 PM 42.2056 -77.9139 90° East 477 549 21,200 -1,525 Descending Cleveland Center
Sun 10:26:55 PM 42.2075 -77.7431 89° East 466 536 19,700 -1,426 Descending Cleveland Center
Sun 10:27:56 PM 42.2089 -77.5781 89° East 453 521 18,300 -1,475 Descending Cleveland Center
Sun 10:28:57 PM 42.2097 -77.3825 90° East 444 511 16,700 -1,525 Descending Cleveland Center
Sun 10:29:58 PM 42.2103 -77.2214 90° East 437 503 15,200 -934 Descending Cleveland Center
Sun 10:30:59 PM 42.2111 -77.0631 90° East 430 495 14,800 -927 Descending Cleveland Center
Sun 10:32:01 PM 42.2108 -76.9133 90° East 408 470 13,300 -1,463 Descending Cleveland Center
Sun 10:33:02 PM 42.2117 -76.7706 90° East 389 448 11,800 -1,426 Descending Cleveland Center
Sun 10:34:03 PM 42.2117 -76.6481 90° East 334 384 10,400 -1,279 Descending Cleveland Center
Sun 10:35:04 PM 42.2150 -76.5394 88° East 297 342 9,200 -689 Descending Cleveland Center
Sun 10:36:05 PM 42.2356 -76.4369 75° East 286 329 9,000 -885 Descending Cleveland Center
Sun 10:37:06 PM 42.2533 -76.3289 77° East 286 329 7,400 -1,721 Descending Cleveland Center
Sun 10:38:07 PM 42.2700 -76.2328 77° East 272 313 5,500 -1,672 Descending Cleveland Center
Sun 10:39:08 PM 42.2858 -76.1483 76° East 241 277 4,000 -976 Descending Cleveland Center
Sun 10:40:10 PM 42.2983 -76.0700 78° East 193 222 3,500 -390 Descending Cleveland Center
Sun 10:41:11 PM 42.2783 -76.0381 130° Southeast 172 198 3,200 -295 Descending Cleveland Center

Login

Don't have an account? Register now (free) for customized features, flight alerts, and more!